sensor_id;sensor_type;location;lat;lon;timestamp;P1;durP1;ratioP1;P2;durP2;ratioP2
21101;SDS011;10709;49.006;12.100;2023-10-13T00:00:27;13.82;;;9.63;;
21101;SDS011;10709;49.006;12.100;2023-10-13T00:02:59;11.35;;;8.75;;
21101;SDS011;10709;49.006;12.100;2023-10-13T00:05:29;12.65;;;8.57;;
21101;SDS011;10709;49.006;12.100;2023-10-13T00:07:59;13.73;;;9.23;;
21101;SDS011;10709;49.006;12.100;2023-10-13T00:10:27;15.10;;;9.18;;
21101;SDS011;10709;49.006;12.100;2023-10-13T00:12:57;12.95;;;8.85;;
21101;SDS011;10709;49.006;12.100;2023-10-13T00:15:40;11.98;;;8.85;;
21101;SDS011;10709;49.006;12.100;2023-10-13T00:18:30;14.40;;;9.10;;
21101;SDS011;10709;49.006;12.100;2023-10-13T00:21:01;12.52;;;8.85;;
21101;SDS011;10709;49.006;12.100;2023-10-13T00:23:40;14.30;;;8.68;;
21101;SDS011;10709;49.006;12.100;2023-10-13T00:26:24;13.82;;;9.13;;
21101;SDS011;10709;49.006;12.100;2023-10-13T00:28:54;13.27;;;9.45;;
21101;SDS011;10709;49.006;12.100;2023-10-13T00:31:35;13.63;;;9.13;;
21101;SDS011;10709;49.006;12.100;2023-10-13T00:34:04;15.07;;;9.70;;
21101;SDS011;10709;49.006;12.100;2023-10-13T00:36:51;13.38;;;9.15;;
21101;SDS011;10709;49.006;12.100;2023-10-13T00:39:37;13.43;;;9.03;;
21101;SDS011;10709;49.006;12.100;2023-10-13T00:42:06;15.73;;;9.32;;
21101;SDS011;10709;49.006;12.100;2023-10-13T00:44:34;15.27;;;9.50;;
21101;SDS011;10709;49.006;12.100;2023-10-13T00:47:21;14.55;;;8.93;;
21101;SDS011;10709;49.006;12.100;2023-10-13T00:50:06;14.18;;;9.52;;
21101;SDS011;10709;49.006;12.100;2023-10-13T00:52:41;12.73;;;9.50;;
21101;SDS011;10709;49.006;12.100;2023-10-13T00:55:13;11.75;;;9.27;;
21101;SDS011;10709;49.006;12.100;2023-10-13T00:57:40;13.45;;;9.13;;
21101;SDS011;10709;49.006;12.100;2023-10-13T01:00:07;11.82;;;9.43;;
21101;SDS011;10709;49.006;12.100;2023-10-13T01:02:45;12.52;;;9.48;;
21101;SDS011;10709;49.006;12.100;2023-10-13T01:05:20;15.80;;;9.18;;
21101;SDS011;10709;49.006;12.100;2023-10-13T01:07:49;13.10;;;9.23;;
21101;SDS011;10709;49.006;12.100;2023-10-13T01:10:19;13.80;;;9.90;;
21101;SDS011;10709;49.006;12.100;2023-10-13T01:12:47;11.57;;;9.23;;
21101;SDS011;10709;49.006;12.100;2023-10-13T01:15:13;14.80;;;8.90;;
21101;SDS011;10709;49.006;12.100;2023-10-13T01:17:47;13.27;;;9.10;;
21101;SDS011;10709;49.006;12.100;2023-10-13T01:20:14;14.10;;;9.40;;
21101;SDS011;10709;49.006;12.100;2023-10-13T01:22:47;12.63;;;8.48;;
21101;SDS011;10709;49.006;12.100;2023-10-13T01:25:25;15.23;;;8.33;;
21101;SDS011;10709;49.006;12.100;2023-10-13T01:27:55;13.07;;;8.75;;
21101;SDS011;10709;49.006;12.100;2023-10-13T01:30:21;13.10;;;9.60;;
21101;SDS011;10709;49.006;12.100;2023-10-13T01:32:52;12.80;;;8.93;;
21101;SDS011;10709;49.006;12.100;2023-10-13T01:35:20;12.97;;;8.93;;
21101;SDS011;10709;49.006;12.100;2023-10-13T01:37:52;12.67;;;9.23;;
21101;SDS011;10709;49.006;12.100;2023-10-13T01:40:19;13.60;;;9.07;;
21101;SDS011;10709;49.006;12.100;2023-10-13T01:42:47;13.00;;;9.30;;
21101;SDS011;10709;49.006;12.100;2023-10-13T01:45:21;13.30;;;8.83;;
21101;SDS011;10709;49.006;12.100;2023-10-13T01:47:51;12.43;;;9.10;;
21101;SDS011;10709;49.006;12.100;2023-10-13T01:50:18;13.63;;;8.90;;
21101;SDS011;10709;49.006;12.100;2023-10-13T01:52:55;13.45;;;8.88;;
21101;SDS011;10709;49.006;12.100;2023-10-13T01:56:00;13.87;;;9.27;;
21101;SDS011;10709;49.006;12.100;2023-10-13T01:58:31;13.57;;;9.23;;
21101;SDS011;10709;49.006;12.100;2023-10-13T02:00:58;12.65;;;9.05;;
21101;SDS011;10709;49.006;12.100;2023-10-13T02:03:26;16.33;;;9.50;;
21101;SDS011;10709;49.006;12.100;2023-10-13T02:05:56;15.03;;;9.63;;
21101;SDS011;10709;49.006;12.100;2023-10-13T02:08:30;14.63;;;9.00;;
21101;SDS011;10709;49.006;12.100;2023-10-13T02:10:57;15.70;;;9.63;;
21101;SDS011;10709;49.006;12.100;2023-10-13T02:13:27;13.57;;;9.40;;
21101;SDS011;10709;49.006;12.100;2023-10-13T02:15:56;15.63;;;9.87;;
21101;SDS011;10709;49.006;12.100;2023-10-13T02:18:24;14.40;;;9.37;;
21101;SDS011;10709;49.006;12.100;2023-10-13T02:20:55;14.53;;;9.40;;
21101;SDS011;10709;49.006;12.100;2023-10-13T02:23:23;11.47;;;8.57;;
21101;SDS011;10709;49.006;12.100;2023-10-13T02:25:51;11.23;;;8.37;;
21101;SDS011;10709;49.006;12.100;2023-10-13T02:28:38;12.27;;;8.50;;
21101;SDS011;10709;49.006;12.100;2023-10-13T02:31:05;12.80;;;9.37;;
21101;SDS011;10709;49.006;12.100;2023-10-13T02:33:33;14.30;;;9.33;;
21101;SDS011;10709;49.006;12.100;2023-10-13T02:36:01;12.00;;;9.23;;
21101;SDS011;10709;49.006;12.100;2023-10-13T02:38:32;15.93;;;9.47;;
21101;SDS011;10709;49.006;12.100;2023-10-13T02:40:59;16.07;;;10.07;;
21101;SDS011;10709;49.006;12.100;2023-10-13T02:43:33;12.23;;;9.50;;
21101;SDS011;10709;49.006;12.100;2023-10-13T02:46:03;13.70;;;9.00;;
21101;SDS011;10709;49.006;12.100;2023-10-13T02:48:30;14.43;;;8.97;;
21101;SDS011;10709;49.006;12.100;2023-10-13T02:51:06;15.70;;;10.93;;
21101;SDS011;10709;49.006;12.100;2023-10-13T02:53:44;17.00;;;11.13;;
21101;SDS011;10709;49.006;12.100;2023-10-13T02:56:16;14.30;;;10.00;;
21101;SDS011;10709;49.006;12.100;2023-10-13T02:58:50;15.37;;;9.60;;
21101;SDS011;10709;49.006;12.100;2023-10-13T03:01:23;18.30;;;11.17;;
21101;SDS011;10709;49.006;12.100;2023-10-13T03:04:01;16.67;;;10.40;;
21101;SDS011;10709;49.006;12.100;2023-10-13T03:06:29;14.90;;;9.57;;
21101;SDS011;10709;49.006;12.100;2023-10-13T03:08:59;17.57;;;10.63;;
21101;SDS011;10709;49.006;12.100;2023-10-13T03:11:42;18.23;;;11.50;;
21101;SDS011;10709;49.006;12.100;2023-10-13T03:14:20;18.33;;;11.70;;
21101;SDS011;10709;49.006;12.100;2023-10-13T03:16:56;18.13;;;12.23;;
21101;SDS011;10709;49.006;12.100;2023-10-13T03:19:32;18.53;;;12.50;;
21101;SDS011;10709;49.006;12.100;2023-10-13T03:22:03;15.50;;;10.83;;
21101;SDS011;10709;49.006;12.100;2023-10-13T03:24:43;17.27;;;11.23;;
21101;SDS011;10709;49.006;12.100;2023-10-13T03:27:14;16.93;;;11.23;;
21101;SDS011;10709;49.006;12.100;2023-10-13T03:29:50;18.13;;;11.63;;
21101;SDS011;10709;49.006;12.100;2023-10-13T03:32:22;18.10;;;12.37;;
21101;SDS011;10709;49.006;12.100;2023-10-13T03:34:53;21.03;;;12.10;;
21101;SDS011;10709;49.006;12.100;2023-10-13T03:37:38;19.90;;;12.43;;
21101;SDS011;10709;49.006;12.100;2023-10-13T03:40:07;21.20;;;12.33;;
21101;SDS011;10709;49.006;12.100;2023-10-13T03:42:47;25.53;;;12.90;;
21101;SDS011;10709;49.006;12.100;2023-10-13T03:45:34;22.67;;;13.47;;
21101;SDS011;10709;49.006;12.100;2023-10-13T03:48:15;18.47;;;11.23;;
21101;SDS011;10709;49.006;12.100;2023-10-13T03:51:01;18.60;;;10.57;;
21101;SDS011;10709;49.006;12.100;2023-10-13T03:53:37;15.37;;;9.50;;
21101;SDS011;10709;49.006;12.100;2023-10-13T03:56:20;18.13;;;9.93;;
21101;SDS011;10709;49.006;12.100;2023-10-13T03:58:59;18.00;;;10.17;;
21101;SDS011;10709;49.006;12.100;2023-10-13T04:01:34;18.47;;;10.20;;
21101;SDS011;10709;49.006;12.100;2023-10-13T04:04:18;19.70;;;10.80;;
21101;SDS011;10709;49.006;12.100;2023-10-13T04:07:10;18.97;;;11.23;;
21101;SDS011;10709;49.006;12.100;2023-10-13T04:09:37;16.83;;;11.23;;
21101;SDS011;10709;49.006;12.100;2023-10-13T04:12:13;20.33;;;12.23;;
21101;SDS011;10709;49.006;12.100;2023-10-13T04:14:59;17.97;;;11.73;;
21101;SDS011;10709;49.006;12.100;2023-10-13T04:17:32;15.97;;;9.97;;
21101;SDS011;10709;49.006;12.100;2023-10-13T04:20:07;18.43;;;12.13;;
21101;SDS011;10709;49.006;12.100;2023-10-13T04:22:38;20.90;;;12.33;;
21101;SDS011;10709;49.006;12.100;2023-10-13T04:25:23;17.50;;;11.47;;
21101;SDS011;10709;49.006;12.100;2023-10-13T04:28:13;16.70;;;11.03;;
21101;SDS011;10709;49.006;12.100;2023-10-13T04:30:44;17.43;;;11.83;;
21101;SDS011;10709;49.006;12.100;2023-10-13T04:33:33;18.30;;;12.77;;
21101;SDS011;10709;49.006;12.100;2023-10-13T04:36:05;20.47;;;14.10;;
21101;SDS011;10709;49.006;12.100;2023-10-13T04:38:40;19.83;;;13.83;;
21101;SDS011;10709;49.006;12.100;2023-10-13T04:41:25;18.17;;;13.00;;
21101;SDS011;10709;49.006;12.100;2023-10-13T04:43:58;21.20;;;12.97;;
21101;SDS011;10709;49.006;12.100;2023-10-13T04:46:31;17.00;;;12.73;;
21101;SDS011;10709;49.006;12.100;2023-10-13T04:49:13;18.90;;;12.70;;
21101;SDS011;10709;49.006;12.100;2023-10-13T04:51:59;18.80;;;11.47;;
21101;SDS011;10709;49.006;12.100;2023-10-13T04:54:36;19.70;;;12.33;;
21101;SDS011;10709;49.006;12.100;2023-10-13T04:57:17;18.43;;;13.27;;
21101;SDS011;10709;49.006;12.100;2023-10-13T05:00:08;23.43;;;13.80;;
21101;SDS011;10709;49.006;12.100;2023-10-13T05:02:38;23.20;;;14.20;;
21101;SDS011;10709;49.006;12.100;2023-10-13T05:05:24;21.30;;;14.13;;
21101;SDS011;10709;49.006;12.100;2023-10-13T05:08:09;18.23;;;12.27;;
21101;SDS011;10709;49.006;12.100;2023-10-13T05:10:54;19.70;;;13.87;;
21101;SDS011;10709;49.006;12.100;2023-10-13T05:13:39;20.47;;;14.00;;
21101;SDS011;10709;49.006;12.100;2023-10-13T05:16:25;18.90;;;12.67;;
21101;SDS011;10709;49.006;12.100;2023-10-13T05:19:11;17.43;;;12.87;;
21101;SDS011;10709;49.006;12.100;2023-10-13T05:21:56;16.93;;;13.17;;
21101;SDS011;10709;49.006;12.100;2023-10-13T05:24:41;19.40;;;13.17;;
21101;SDS011;10709;49.006;12.100;2023-10-13T05:27:26;22.63;;;13.87;;
21101;SDS011;10709;49.006;12.100;2023-10-13T05:30:11;20.30;;;13.43;;
21101;SDS011;10709;49.006;12.100;2023-10-13T05:32:56;21.07;;;14.10;;
21101;SDS011;10709;49.006;12.100;2023-10-13T05:35:52;20.73;;;13.03;;
21101;SDS011;10709;49.006;12.100;2023-10-13T05:38:37;24.00;;;13.63;;
21101;SDS011;10709;49.006;12.100;2023-10-13T05:41:22;26.60;;;14.47;;
21101;SDS011;10709;49.006;12.100;2023-10-13T05:44:08;22.27;;;14.17;;
21101;SDS011;10709;49.006;12.100;2023-10-13T05:46:53;21.03;;;14.97;;
21101;SDS011;10709;49.006;12.100;2023-10-13T05:49:58;18.93;;;13.30;;
21101;SDS011;10709;49.006;12.100;2023-10-13T05:52:48;24.17;;;14.23;;
21101;SDS011;10709;49.006;12.100;2023-10-13T05:55:24;20.67;;;14.47;;
21101;SDS011;10709;49.006;12.100;2023-10-13T05:58:10;21.10;;;14.23;;
21101;SDS011;10709;49.006;12.100;2023-10-13T06:00:55;19.80;;;13.93;;
21101;SDS011;10709;49.006;12.100;2023-10-13T06:03:41;20.80;;;13.37;;
21101;SDS011;10709;49.006;12.100;2023-10-13T06:06:26;18.03;;;13.73;;
21101;SDS011;10709;49.006;12.100;2023-10-13T06:09:11;19.47;;;12.50;;
21101;SDS011;10709;49.006;12.100;2023-10-13T06:11:56;15.50;;;12.37;;
21101;SDS011;10709;49.006;12.100;2023-10-13T06:14:45;18.80;;;13.40;;
21101;SDS011;10709;49.006;12.100;2023-10-13T06:17:31;21.43;;;13.83;;
21101;SDS011;10709;49.006;12.100;2023-10-13T06:20:16;19.57;;;13.73;;
21101;SDS011;10709;49.006;12.100;2023-10-13T06:23:02;19.77;;;13.80;;
21101;SDS011;10709;49.006;12.100;2023-10-13T06:25:50;20.87;;;13.83;;
21101;SDS011;10709;49.006;12.100;2023-10-13T06:28:36;22.30;;;13.63;;
21101;SDS011;10709;49.006;12.100;2023-10-13T06:31:09;25.50;;;15.47;;
21101;SDS011;10709;49.006;12.100;2023-10-13T06:33:52;23.40;;;15.03;;
21101;SDS011;10709;49.006;12.100;2023-10-13T06:36:22;18.80;;;13.97;;
21101;SDS011;10709;49.006;12.100;2023-10-13T06:38:48;22.03;;;15.17;;
21101;SDS011;10709;49.006;12.100;2023-10-13T06:41:22;20.27;;;14.23;;
21101;SDS011;10709;49.006;12.100;2023-10-13T06:43:57;20.60;;;15.63;;
21101;SDS011;10709;49.006;12.100;2023-10-13T06:46:27;24.47;;;15.47;;
21101;SDS011;10709;49.006;12.100;2023-10-13T06:48:55;20.13;;;15.77;;
21101;SDS011;10709;49.006;12.100;2023-10-13T06:51:25;24.70;;;14.97;;
21101;SDS011;10709;49.006;12.100;2023-10-13T06:53:58;21.77;;;14.63;;
21101;SDS011;10709;49.006;12.100;2023-10-13T06:56:25;19.23;;;13.37;;
21101;SDS011;10709;49.006;12.100;2023-10-13T06:58:55;20.17;;;14.87;;
21101;SDS011;10709;49.006;12.100;2023-10-13T07:01:32;21.03;;;15.33;;
21101;SDS011;10709;49.006;12.100;2023-10-13T07:04:09;21.30;;;13.97;;
21101;SDS011;10709;49.006;12.100;2023-10-13T07:06:43;23.40;;;15.23;;
21101;SDS011;10709;49.006;12.100;2023-10-13T07:09:18;21.17;;;16.40;;
21101;SDS011;10709;49.006;12.100;2023-10-13T07:12:06;21.97;;;14.33;;
21101;SDS011;10709;49.006;12.100;2023-10-13T07:14:46;23.30;;;15.23;;
21101;SDS011;10709;49.006;12.100;2023-10-13T07:17:21;21.27;;;15.43;;
21101;SDS011;10709;49.006;12.100;2023-10-13T07:19:51;22.47;;;15.53;;
21101;SDS011;10709;49.006;12.100;2023-10-13T07:22:22;17.73;;;13.87;;
21101;SDS011;10709;49.006;12.100;2023-10-13T07:24:50;20.23;;;14.70;;
21101;SDS011;10709;49.006;12.100;2023-10-13T07:27:17;20.67;;;14.23;;
21101;SDS011;10709;49.006;12.100;2023-10-13T07:29:51;18.93;;;13.87;;
21101;SDS011;10709;49.006;12.100;2023-10-13T07:32:23;22.10;;;15.43;;
21101;SDS011;10709;49.006;12.100;2023-10-13T07:34:53;21.93;;;15.13;;
21101;SDS011;10709;49.006;12.100;2023-10-13T07:37:22;20.13;;;15.63;;
21101;SDS011;10709;49.006;12.100;2023-10-13T07:39:55;20.67;;;14.47;;
21101;SDS011;10709;49.006;12.100;2023-10-13T07:42:25;21.97;;;15.83;;
21101;SDS011;10709;49.006;12.100;2023-10-13T07:44:58;19.90;;;15.40;;
21101;SDS011;10709;49.006;12.100;2023-10-13T07:47:25;21.37;;;16.20;;
21101;SDS011;10709;49.006;12.100;2023-10-13T07:49:54;19.07;;;14.73;;
21101;SDS011;10709;49.006;12.100;2023-10-13T07:52:23;21.20;;;15.10;;
21101;SDS011;10709;49.006;12.100;2023-10-13T07:54:53;22.60;;;15.67;;
21101;SDS011;10709;49.006;12.100;2023-10-13T07:57:26;19.53;;;14.77;;
21101;SDS011;10709;49.006;12.100;2023-10-13T07:59:56;15.73;;;13.23;;
21101;SDS011;10709;49.006;12.100;2023-10-13T08:02:36;20.77;;;15.10;;
21101;SDS011;10709;49.006;12.100;2023-10-13T08:05:16;18.83;;;13.97;;
21101;SDS011;10709;49.006;12.100;2023-10-13T08:07:55;20.10;;;13.90;;
21101;SDS011;10709;49.006;12.100;2023-10-13T08:10:22;19.03;;;14.37;;
21101;SDS011;10709;49.006;12.100;2023-10-13T08:12:56;18.47;;;12.40;;
21101;SDS011;10709;49.006;12.100;2023-10-13T08:15:25;18.40;;;13.37;;
21101;SDS011;10709;49.006;12.100;2023-10-13T08:18:00;19.33;;;13.20;;
21101;SDS011;10709;49.006;12.100;2023-10-13T08:20:44;18.40;;;12.03;;
21101;SDS011;10709;49.006;12.100;2023-10-13T08:23:11;18.40;;;11.40;;
21101;SDS011;10709;49.006;12.100;2023-10-13T08:25:41;17.40;;;11.83;;
21101;SDS011;10709;49.006;12.100;2023-10-13T08:28:30;15.20;;;11.03;;
21101;SDS011;10709;49.006;12.100;2023-10-13T08:31:22;18.43;;;11.20;;
21101;SDS011;10709;49.006;12.100;2023-10-13T08:33:52;14.37;;;10.57;;
21101;SDS011;10709;49.006;12.100;2023-10-13T08:36:32;15.97;;;11.50;;
21101;SDS011;10709;49.006;12.100;2023-10-13T08:38:59;17.03;;;11.60;;
21101;SDS011;10709;49.006;12.100;2023-10-13T08:41:42;16.43;;;10.57;;
21101;SDS011;10709;49.006;12.100;2023-10-13T08:44:25;15.77;;;10.30;;
21101;SDS011;10709;49.006;12.100;2023-10-13T08:47:12;13.83;;;10.13;;
21101;SDS011;10709;49.006;12.100;2023-10-13T08:49:45;15.50;;;10.20;;
21101;SDS011;10709;49.006;12.100;2023-10-13T08:52:17;15.60;;;9.60;;
21101;SDS011;10709;49.006;12.100;2023-10-13T08:55:09;12.57;;;9.43;;
21101;SDS011;10709;49.006;12.100;2023-10-13T08:58:12;14.07;;;10.03;;
21101;SDS011;10709;49.006;12.100;2023-10-13T09:00:41;14.33;;;9.37;;
21101;SDS011;10709;49.006;12.100;2023-10-13T09:03:40;13.20;;;9.53;;
21101;SDS011;10709;49.006;12.100;2023-10-13T09:06:14;13.27;;;8.98;;
21101;SDS011;10709;49.006;12.100;2023-10-13T09:08:41;16.20;;;9.27;;
21101;SDS011;10709;49.006;12.100;2023-10-13T09:11:34;14.80;;;9.03;;
21101;SDS011;10709;49.006;12.100;2023-10-13T09:14:16;15.65;;;8.63;;
21101;SDS011;10709;49.006;12.100;2023-10-13T09:17:01;15.50;;;8.90;;
21101;SDS011;10709;49.006;12.100;2023-10-13T09:22:51;12.67;;;8.20;;
21101;SDS011;10709;49.006;12.100;2023-10-13T09:25:28;15.15;;;8.88;;
21101;SDS011;10709;49.006;12.100;2023-10-13T09:28:11;11.93;;;7.90;;
21101;SDS011;10709;49.006;12.100;2023-10-13T09:30:44;16.40;;;8.40;;
21101;SDS011;10709;49.006;12.100;2023-10-13T09:33:12;10.85;;;7.20;;
21101;SDS011;10709;49.006;12.100;2023-10-13T09:35:43;11.93;;;6.88;;
21101;SDS011;10709;49.006;12.100;2023-10-13T09:38:19;14.68;;;7.68;;
21101;SDS011;10709;49.006;12.100;2023-10-13T09:40:47;12.05;;;7.05;;
21101;SDS011;10709;49.006;12.100;2023-10-13T09:43:17;11.73;;;6.85;;
21101;SDS011;10709;49.006;12.100;2023-10-13T09:45:48;13.05;;;7.28;;
21101;SDS011;10709;49.006;12.100;2023-10-13T09:48:44;11.30;;;6.95;;
21101;SDS011;10709;49.006;12.100;2023-10-13T09:51:13;12.27;;;6.30;;
21101;SDS011;10709;49.006;12.100;2023-10-13T09:54:01;15.13;;;6.80;;
21101;SDS011;10709;49.006;12.100;2023-10-13T09:57:01;10.63;;;6.78;;
21101;SDS011;10709;49.006;12.100;2023-10-13T09:59:57;8.65;;;5.47;;
21101;SDS011;10709;49.006;12.100;2023-10-13T10:02:53;10.15;;;5.80;;
21101;SDS011;10709;49.006;12.100;2023-10-13T10:05:25;10.35;;;5.70;;
21101;SDS011;10709;49.006;12.100;2023-10-13T10:07:56;12.35;;;5.72;;
21101;SDS011;10709;49.006;12.100;2023-10-13T10:13:35;12.15;;;5.35;;
21101;SDS011;10709;49.006;12.100;2023-10-13T10:16:12;10.30;;;4.78;;
21101;SDS011;10709;49.006;12.100;2023-10-13T10:18:46;9.82;;;4.95;;
21101;SDS011;10709;49.006;12.100;2023-10-13T10:21:13;10.15;;;4.60;;
21101;SDS011;10709;49.006;12.100;2023-10-13T10:23:41;9.50;;;4.50;;
21101;SDS011;10709;49.006;12.100;2023-10-13T10:26:19;10.65;;;3.97;;
21101;SDS011;10709;49.006;12.100;2023-10-13T10:28:46;8.40;;;4.35;;
21101;SDS011;10709;49.006;12.100;2023-10-13T10:31:13;9.85;;;3.72;;
21101;SDS011;10709;49.006;12.100;2023-10-13T10:33:43;5.80;;;3.50;;
21101;SDS011;10709;49.006;12.100;2023-10-13T10:36:11;7.45;;;3.90;;
21101;SDS011;10709;49.006;12.100;2023-10-13T10:38:53;8.65;;;4.00;;
21101;SDS011;10709;49.006;12.100;2023-10-13T10:41:27;5.35;;;3.63;;
21101;SDS011;10709;49.006;12.100;2023-10-13T10:44:11;7.88;;;3.83;;
21101;SDS011;10709;49.006;12.100;2023-10-13T10:46:43;9.77;;;4.30;;
21101;SDS011;10709;49.006;12.100;2023-10-13T10:49:27;6.85;;;3.88;;
21101;SDS011;10709;49.006;12.100;2023-10-13T10:51:59;9.52;;;3.72;;
21101;SDS011;10709;49.006;12.100;2023-10-13T10:54:33;8.35;;;3.97;;
21101;SDS011;10709;49.006;12.100;2023-10-13T10:57:00;8.43;;;3.75;;
21101;SDS011;10709;49.006;12.100;2023-10-13T10:59:44;6.43;;;4.07;;
21101;SDS011;10709;49.006;12.100;2023-10-13T11:02:12;6.93;;;3.88;;
21101;SDS011;10709;49.006;12.100;2023-10-13T11:04:50;7.97;;;3.85;;
21101;SDS011;10709;49.006;12.100;2023-10-13T11:07:21;6.22;;;3.72;;
21101;SDS011;10709;49.006;12.100;2023-10-13T11:09:49;7.05;;;4.00;;
21101;SDS011;10709;49.006;12.100;2023-10-13T11:12:20;8.32;;;4.15;;
21101;SDS011;10709;49.006;12.100;2023-10-13T11:15:00;8.00;;;3.83;;
21101;SDS011;10709;49.006;12.100;2023-10-13T11:17:28;4.57;;;3.83;;
21101;SDS011;10709;49.006;12.100;2023-10-13T11:20:16;8.15;;;4.13;;
21101;SDS011;10709;49.006;12.100;2023-10-13T11:22:52;8.35;;;4.18;;
21101;SDS011;10709;49.006;12.100;2023-10-13T11:25:23;8.32;;;3.95;;
21101;SDS011;10709;49.006;12.100;2023-10-13T11:27:56;8.25;;;4.30;;
21101;SDS011;10709;49.006;12.100;2023-10-13T11:30:27;8.43;;;4.07;;
21101;SDS011;10709;49.006;12.100;2023-10-13T11:33:14;8.63;;;3.63;;
21101;SDS011;10709;49.006;12.100;2023-10-13T11:35:45;6.10;;;3.90;;
21101;SDS011;10709;49.006;12.100;2023-10-13T11:38:25;8.18;;;4.15;;
21101;SDS011;10709;49.006;12.100;2023-10-13T11:41:02;8.63;;;4.20;;
21101;SDS011;10709;49.006;12.100;2023-10-13T11:43:34;9.25;;;4.18;;
21101;SDS011;10709;49.006;12.100;2023-10-13T11:46:20;7.45;;;3.78;;
21101;SDS011;10709;49.006;12.100;2023-10-13T11:49:07;8.40;;;4.00;;
21101;SDS011;10709;49.006;12.100;2023-10-13T11:51:40;10.27;;;4.07;;
21101;SDS011;10709;49.006;12.100;2023-10-13T11:54:15;6.40;;;3.47;;
21101;SDS011;10709;49.006;12.100;2023-10-13T11:56:42;8.20;;;3.80;;
21101;SDS011;10709;49.006;12.100;2023-10-13T11:59:09;6.65;;;3.70;;
21101;SDS011;10709;49.006;12.100;2023-10-13T12:01:45;7.97;;;4.15;;
21101;SDS011;10709;49.006;12.100;2023-10-13T12:04:30;13.15;;;3.92;;
21101;SDS011;10709;49.006;12.100;2023-10-13T12:07:18;7.28;;;3.20;;
21101;SDS011;10709;49.006;12.100;2023-10-13T12:10:14;6.63;;;3.17;;
21101;SDS011;10709;49.006;12.100;2023-10-13T12:13:01;7.15;;;3.22;;
21101;SDS011;10709;49.006;12.100;2023-10-13T12:15:32;7.78;;;3.60;;
21101;SDS011;10709;49.006;12.100;2023-10-13T12:18:15;6.15;;;3.38;;
21101;SDS011;10709;49.006;12.100;2023-10-13T12:20:42;10.85;;;3.53;;
21101;SDS011;10709;49.006;12.100;2023-10-13T12:23:12;8.63;;;3.28;;
21101;SDS011;10709;49.006;12.100;2023-10-13T12:25:43;4.70;;;3.00;;
21101;SDS011;10709;49.006;12.100;2023-10-13T12:28:26;6.70;;;3.10;;
21101;SDS011;10709;49.006;12.100;2023-10-13T12:30:55;7.40;;;3.40;;
21101;SDS011;10709;49.006;12.100;2023-10-13T12:33:24;8.65;;;3.50;;
21101;SDS011;10709;49.006;12.100;2023-10-13T12:35:55;8.30;;;3.30;;
21101;SDS011;10709;49.006;12.100;2023-10-13T12:38:38;8.35;;;3.40;;
21101;SDS011;10709;49.006;12.100;2023-10-13T12:41:14;8.35;;;3.88;;
21101;SDS011;10709;49.006;12.100;2023-10-13T12:44:02;6.13;;;3.30;;
21101;SDS011;10709;49.006;12.100;2023-10-13T12:46:48;11.02;;;3.25;;
21101;SDS011;10709;49.006;12.100;2023-10-13T12:49:34;8.00;;;3.95;;
21101;SDS011;10709;49.006;12.100;2023-10-13T12:52:10;10.20;;;3.40;;
21101;SDS011;10709;49.006;12.100;2023-10-13T12:54:52;11.77;;;3.10;;
21101;SDS011;10709;49.006;12.100;2023-10-13T12:57:32;9.10;;;3.47;;
21101;SDS011;10709;49.006;12.100;2023-10-13T12:59:59;9.77;;;3.70;;
21101;SDS011;10709;49.006;12.100;2023-10-13T13:02:27;9.25;;;2.92;;
21101;SDS011;10709;49.006;12.100;2023-10-13T13:04:55;9.95;;;3.30;;
21101;SDS011;10709;49.006;12.100;2023-10-13T13:07:39;9.10;;;3.30;;
21101;SDS011;10709;49.006;12.100;2023-10-13T13:10:20;9.20;;;3.60;;
21101;SDS011;10709;49.006;12.100;2023-10-13T13:13:02;7.80;;;3.28;;
21101;SDS011;10709;49.006;12.100;2023-10-13T13:15:29;10.85;;;3.17;;
21101;SDS011;10709;49.006;12.100;2023-10-13T13:17:55;9.05;;;3.40;;
21101;SDS011;10709;49.006;12.100;2023-10-13T13:20:23;10.25;;;3.67;;
21101;SDS011;10709;49.006;12.100;2023-10-13T13:22:54;8.80;;;3.20;;
21101;SDS011;10709;49.006;12.100;2023-10-13T13:25:21;12.68;;;3.45;;
21101;SDS011;10709;49.006;12.100;2023-10-13T13:27:57;6.57;;;3.15;;
21101;SDS011;10709;49.006;12.100;2023-10-13T13:30:24;7.30;;;2.72;;
21101;SDS011;10709;49.006;12.100;2023-10-13T13:32:56;8.98;;;3.15;;
21101;SDS011;10709;49.006;12.100;2023-10-13T13:35:24;8.75;;;3.45;;
21101;SDS011;10709;49.006;12.100;2023-10-13T13:37:59;10.35;;;3.20;;
21101;SDS011;10709;49.006;12.100;2023-10-13T13:40:32;8.35;;;3.55;;
21101;SDS011;10709;49.006;12.100;2023-10-13T13:43:01;7.90;;;3.30;;
21101;SDS011;10709;49.006;12.100;2023-10-13T13:45:29;7.10;;;3.30;;
21101;SDS011;10709;49.006;12.100;2023-10-13T13:47:58;6.50;;;3.20;;
21101;SDS011;10709;49.006;12.100;2023-10-13T13:50:25;8.00;;;3.33;;
21101;SDS011;10709;49.006;12.100;2023-10-13T13:52:55;7.38;;;3.30;;
21101;SDS011;10709;49.006;12.100;2023-10-13T13:55:23;9.32;;;3.30;;
21101;SDS011;10709;49.006;12.100;2023-10-13T13:57:52;6.28;;;3.10;;
21101;SDS011;10709;49.006;12.100;2023-10-13T14:00:19;5.97;;;3.08;;
21101;SDS011;10709;49.006;12.100;2023-10-13T14:03:05;6.80;;;3.00;;
21101;SDS011;10709;49.006;12.100;2023-10-13T14:05:42;7.13;;;3.20;;
21101;SDS011;10709;49.006;12.100;2023-10-13T14:08:09;8.95;;;3.72;;
21101;SDS011;10709;49.006;12.100;2023-10-13T14:10:38;10.63;;;3.65;;
21101;SDS011;10709;49.006;12.100;2023-10-13T14:13:23;8.88;;;3.17;;
21101;SDS011;10709;49.006;12.100;2023-10-13T14:16:10;11.40;;;3.17;;
21101;SDS011;10709;49.006;12.100;2023-10-13T14:18:46;6.35;;;2.60;;
21101;SDS011;10709;49.006;12.100;2023-10-13T14:21:14;9.90;;;3.08;;
21101;SDS011;10709;49.006;12.100;2023-10-13T14:23:48;6.68;;;2.88;;
21101;SDS011;10709;49.006;12.100;2023-10-13T14:26:16;10.32;;;2.78;;
21101;SDS011;10709;49.006;12.100;2023-10-13T14:28:47;10.93;;;3.20;;
21101;SDS011;10709;49.006;12.100;2023-10-13T14:31:28;7.07;;;3.42;;
21101;SDS011;10709;49.006;12.100;2023-10-13T14:33:57;6.32;;;3.25;;
21101;SDS011;10709;49.006;12.100;2023-10-13T14:36:24;8.48;;;4.03;;
21101;SDS011;10709;49.006;12.100;2023-10-13T14:38:55;10.00;;;4.32;;
21101;SDS011;10709;49.006;12.100;2023-10-13T14:41:22;8.95;;;5.00;;
21101;SDS011;10709;49.006;12.100;2023-10-13T14:43:50;10.68;;;3.95;;
21101;SDS011;10709;49.006;12.100;2023-10-13T14:46:17;8.68;;;3.83;;
21101;SDS011;10709;49.006;12.100;2023-10-13T14:48:52;9.55;;;3.17;;
21101;SDS011;10709;49.006;12.100;2023-10-13T14:51:19;6.90;;;3.10;;
21101;SDS011;10709;49.006;12.100;2023-10-13T14:53:47;10.60;;;3.03;;
21101;SDS011;10709;49.006;12.100;2023-10-13T14:56:18;7.95;;;3.25;;
21101;SDS011;10709;49.006;12.100;2023-10-13T14:58:46;9.93;;;3.10;;
21101;SDS011;10709;49.006;12.100;2023-10-13T15:01:22;8.15;;;3.30;;
21101;SDS011;10709;49.006;12.100;2023-10-13T15:03:53;6.15;;;3.20;;
21101;SDS011;10709;49.006;12.100;2023-10-13T15:06:24;9.38;;;3.20;;
21101;SDS011;10709;49.006;12.100;2023-10-13T15:08:56;5.30;;;3.00;;
21101;SDS011;10709;49.006;12.100;2023-10-13T15:11:23;5.63;;;3.20;;
21101;SDS011;10709;49.006;12.100;2023-10-13T15:13:54;4.90;;;2.95;;
21101;SDS011;10709;49.006;12.100;2023-10-13T15:16:23;5.65;;;3.05;;